createdAt,value
2023-05-21T00:02:59.522Z,12.13
2023-05-21T00:08:02.825Z,12.02
2023-05-21T00:13:05.931Z,11.89
2023-05-21T00:18:08.999Z,11.75
2023-05-21T00:23:12.156Z,11.62
2023-05-21T00:28:15.157Z,11.47
2023-05-21T00:33:18.504Z,11.34
2023-05-21T00:38:22.414Z,11.25
2023-05-21T00:43:26.832Z,11.21
2023-05-21T00:48:29.837Z,11.17
2023-05-21T00:53:35.191Z,11.14
2023-05-21T00:58:39.769Z,11.06
2023-05-21T01:03:43.108Z,11.01
2023-05-21T01:08:46.888Z,10.94
2023-05-21T01:13:51.071Z,10.84
2023-05-21T01:18:54.258Z,10.76
2023-05-21T01:23:57.338Z,10.68
2023-05-21T01:29:00.344Z,10.62
2023-05-21T01:34:09.672Z,10.54
2023-05-21T01:39:16.916Z,10.47
2023-05-21T01:44:21.087Z,10.44
2023-05-21T01:49:24.690Z,10.41
2023-05-21T01:54:27.674Z,10.40
2023-05-21T01:59:30.931Z,10.44
2023-05-21T02:04:34.095Z,10.48
2023-05-21T02:09:37.100Z,10.54
2023-05-21T02:14:40.130Z,10.58
2023-05-21T02:19:45.059Z,10.60
2023-05-21T02:24:48.063Z,10.65
2023-05-21T02:29:51.177Z,10.71
2023-05-21T02:34:54.183Z,10.77
2023-05-21T02:39:57.191Z,10.85
2023-05-21T02:45:00.630Z,11.03
2023-05-21T02:50:05.971Z,11.40
2023-05-21T02:55:09.928Z,11.73
2023-05-21T03:00:13.922Z,11.91
2023-05-21T03:05:16.930Z,12.04
2023-05-21T03:10:19.932Z,12.42
2023-05-21T03:15:24.425Z,13.01
2023-05-21T03:20:28.510Z,14.17
2023-05-21T03:25:31.659Z,15.47
2023-05-21T03:30:34.729Z,16.64
2023-05-21T03:35:38.029Z,17.68
2023-05-21T03:40:41.198Z,19.25
2023-05-21T03:45:44.582Z,20.73
2023-05-21T03:50:48.085Z,21.89
2023-05-21T03:55:55.408Z,23.03
2023-05-21T04:00:58.813Z,24.16
2023-05-21T04:06:03.516Z,25.31
2023-05-21T04:11:06.673Z,26.45
2023-05-21T04:16:09.797Z,27.36
2023-05-21T04:21:13.349Z,28.38
2023-05-21T04:26:16.501Z,29.32
2023-05-21T04:31:19.584Z,30.16
2023-05-21T04:36:22.633Z,31.01
2023-05-21T04:41:25.728Z,31.83
2023-05-21T04:46:28.754Z,32.64
2023-05-21T04:51:32.157Z,33.08
2023-05-21T04:56:35.269Z,33.28
2023-05-21T05:01:38.815Z,33.09
2023-05-21T05:06:41.816Z,32.64
2023-05-21T05:11:44.920Z,32.15
2023-05-21T05:16:50.662Z,31.78
2023-05-21T05:21:54.171Z,31.27
2023-05-21T05:26:57.191Z,30.71
2023-05-21T05:32:00.196Z,30.75
2023-05-21T05:37:04.538Z,31.30
2023-05-21T05:42:07.547Z,31.28
2023-05-21T05:47:11.169Z,31.01
2023-05-21T05:52:14.577Z,30.98
2023-05-21T05:57:17.622Z,30.89
2023-05-21T06:02:20.982Z,30.34
2023-05-21T06:07:24.312Z,30.17
2023-05-21T06:12:27.330Z,30.54
2023-05-21T06:17:30.470Z,31.10
2023-05-21T06:22:34.257Z,31.57
2023-05-21T06:27:38.154Z,31.79
2023-05-21T06:32:41.382Z,31.75
2023-05-21T06:37:44.710Z,31.66
2023-05-21T06:42:47.750Z,31.89
2023-05-21T06:47:50.893Z,32.10
2023-05-21T06:52:54.037Z,32.50
2023-05-21T06:57:58.047Z,33.07
2023-05-21T07:03:01.174Z,33.31
2023-05-21T07:08:04.391Z,33.59
2023-05-21T07:13:07.413Z,33.65
2023-05-21T07:18:10.516Z,33.74
2023-05-21T07:23:13.524Z,33.76
2023-05-21T07:28:16.626Z,33.57
2023-05-21T07:33:20.895Z,33.67
2023-05-21T07:38:23.964Z,33.79
2023-05-21T07:43:26.972Z,33.35
2023-05-21T07:48:30.078Z,33.22
2023-05-21T07:53:33.547Z,33.56
2023-05-21T07:58:36.704Z,33.68
2023-05-21T08:03:39.847Z,33.39
2023-05-21T08:08:43.028Z,33.53
2023-05-21T08:13:46.033Z,33.68
2023-05-21T08:18:49.619Z,33.40
2023-05-21T08:23:53.380Z,33.33
2023-05-21T08:28:56.797Z,33.17
2023-05-21T08:33:59.800Z,33.08
2023-05-21T08:39:02.804Z,32.94
2023-05-21T08:44:12.265Z,32.92
2023-05-21T08:49:18.868Z,32.33
2023-05-21T08:54:22.906Z,30.65
2023-05-21T08:59:26.830Z,28.97
2023-05-21T09:04:31.421Z,27.84
2023-05-21T09:09:42.308Z,26.97
2023-05-21T09:14:47.610Z,26.46
2023-05-21T09:20:15.142Z,25.91
2023-05-21T09:25:28.475Z,25.62
2023-05-21T09:30:33.996Z,25.54
2023-05-21T09:35:45.595Z,25.20
2023-05-21T09:40:48.512Z,24.75
2023-05-21T09:45:53.301Z,24.60
2023-05-21T09:51:08.453Z,24.54
2023-05-21T09:56:11.779Z,24.63
2023-05-21T10:01:14.891Z,24.80
2023-05-21T10:06:19.416Z,24.71
2023-05-21T10:11:26.728Z,24.97
2023-05-21T10:16:33.184Z,25.09
2023-05-21T10:21:37.200Z,25.13
2023-05-21T10:26:41.529Z,25.25
2023-05-21T10:31:49.949Z,25.42
2023-05-21T10:36:55.816Z,25.57
2023-05-21T10:42:26.247Z,25.53
2023-05-21T10:47:50.614Z,25.60
2023-05-21T10:53:20.287Z,25.52
2023-05-21T10:58:48.791Z,25.35
2023-05-21T11:03:52.072Z,25.22
2023-05-21T11:08:55.840Z,25.40
2023-05-21T11:13:59.039Z,25.67
2023-05-21T11:19:03.058Z,25.55
2023-05-21T11:24:08.511Z,25.26
2023-05-21T11:29:12.092Z,25.17
2023-05-21T11:34:28.983Z,25.11
2023-05-21T11:39:40.350Z,25.21
2023-05-21T11:44:45.265Z,25.24
2023-05-21T11:49:49.559Z,25.15
2023-05-21T11:54:58.332Z,25.10
2023-05-21T12:00:04.797Z,25.18
2023-05-21T12:05:10.208Z,25.23
2023-05-21T12:10:13.533Z,25.20
2023-05-21T12:15:18.052Z,25.19
2023-05-21T12:20:21.445Z,25.23
2023-05-21T12:25:24.752Z,25.24
2023-05-21T12:30:28.882Z,25.29
2023-05-21T12:35:32.611Z,25.32
2023-05-21T12:40:38.308Z,25.33
2023-05-21T12:45:43.757Z,25.37
2023-05-21T12:50:47.164Z,25.50
2023-05-21T12:55:50.781Z,25.54
2023-05-21T13:00:56.650Z,25.45
2023-05-21T13:06:00.285Z,25.33
2023-05-21T13:11:04.525Z,25.32
2023-05-21T13:16:08.234Z,25.36
2023-05-21T13:21:11.285Z,25.53
2023-05-21T13:26:14.452Z,25.75
2023-05-21T13:31:17.770Z,25.72
2023-05-21T13:36:20.878Z,25.60
2023-05-21T13:41:23.988Z,25.56
2023-05-21T13:46:27.353Z,25.58
2023-05-21T13:51:38.567Z,25.59
2023-05-21T13:56:42.471Z,25.58
2023-05-21T14:01:45.856Z,25.75
2023-05-21T14:06:48.949Z,25.80
2023-05-21T14:11:52.013Z,25.94
2023-05-21T14:16:55.213Z,25.81
2023-05-21T14:22:00.141Z,25.50
2023-05-21T14:27:03.677Z,25.31
2023-05-21T14:32:07.878Z,25.24
2023-05-21T14:37:10.981Z,25.33
2023-05-21T14:42:14.399Z,25.43
2023-05-21T14:47:17.403Z,25.43
2023-05-21T14:52:20.621Z,25.46
2023-05-21T14:57:23.623Z,25.42
2023-05-21T15:02:26.977Z,25.45
2023-05-21T15:07:30.249Z,25.36
2023-05-21T15:12:33.248Z,25.25
2023-05-21T15:17:36.500Z,25.19
2023-05-21T15:22:39.889Z,25.13
2023-05-21T15:27:42.770Z,25.02
2023-05-21T15:32:45.891Z,24.97
2023-05-21T15:37:49.001Z,24.90
2023-05-21T15:42:52.013Z,24.86
2023-05-21T15:47:55.051Z,24.71
2023-05-21T15:52:58.231Z,24.62
2023-05-21T15:58:04.039Z,24.54
2023-05-21T16:03:07.274Z,24.45
2023-05-21T16:08:12.363Z,24.34
2023-05-21T16:13:15.478Z,24.27
2023-05-21T16:18:18.586Z,24.20
2023-05-21T16:23:21.592Z,24.15
2023-05-21T16:28:27.280Z,24.07
2023-05-21T16:33:30.881Z,23.93
2023-05-21T16:38:33.996Z,23.74
2023-05-21T16:43:37.529Z,23.55
2023-05-21T16:48:42.162Z,23.37
2023-05-21T16:53:45.369Z,23.23
2023-05-21T16:58:48.475Z,23.12
2023-05-21T17:03:51.845Z,23.03
2023-05-21T17:08:55.015Z,22.90
2023-05-21T17:13:58.631Z,22.70
2023-05-21T17:19:01.661Z,22.47
2023-05-21T17:24:05.241Z,22.24
2023-05-21T17:29:08.260Z,22.05
2023-05-21T17:34:12.203Z,21.92
2023-05-21T17:39:15.131Z,21.83
2023-05-21T17:44:19.220Z,21.73
2023-05-21T17:49:22.674Z,21.63
2023-05-21T17:54:26.155Z,21.51
2023-05-21T17:59:29.268Z,21.36
2023-05-21T18:04:32.288Z,21.19
2023-05-21T18:09:35.479Z,21.03
2023-05-21T18:14:38.587Z,20.83
2023-05-21T18:19:41.601Z,20.60
2023-05-21T18:24:44.704Z,20.36
2023-05-21T18:29:49.212Z,20.14
2023-05-21T18:34:52.597Z,19.90
2023-05-21T18:39:55.664Z,19.67
2023-05-21T18:45:05.639Z,19.45
2023-05-21T18:50:11.284Z,19.20
2023-05-21T18:55:14.974Z,18.98
2023-05-21T19:00:18.833Z,18.75
2023-05-21T19:05:22.358Z,18.52
2023-05-21T19:10:25.593Z,18.28
2023-05-21T19:15:28.600Z,18.04
2023-05-21T19:20:31.914Z,17.83
2023-05-21T19:25:35.002Z,17.67
2023-05-21T19:30:38.474Z,17.52
2023-05-21T19:35:43.384Z,17.34
2023-05-21T19:40:46.722Z,17.19
2023-05-21T19:45:49.961Z,16.98
2023-05-21T19:50:53.129Z,16.73
2023-05-21T19:55:56.851Z,16.51
2023-05-21T20:01:00.380Z,16.28
2023-05-21T20:06:04.000Z,16.08
2023-05-21T20:11:07.052Z,15.86
2023-05-21T20:16:10.738Z,15.65
2023-05-21T20:21:17.963Z,15.44
2023-05-21T20:26:22.053Z,15.20
2023-05-21T20:31:25.714Z,14.98
2023-05-21T20:36:30.748Z,14.76
2023-05-21T20:41:38.054Z,14.57
2023-05-21T20:46:41.159Z,14.38
2023-05-21T20:51:44.668Z,14.17
2023-05-21T20:56:50.956Z,13.97
2023-05-21T21:01:54.204Z,13.79
2023-05-21T21:06:57.367Z,13.61
2023-05-21T21:12:06.107Z,13.45
2023-05-21T21:17:14.902Z,13.26
2023-05-21T21:22:18.623Z,13.05
2023-05-21T21:27:21.683Z,12.88
2023-05-21T21:32:25.932Z,12.71
2023-05-21T21:37:29.760Z,12.52
2023-05-21T21:42:32.962Z,12.38
2023-05-21T21:47:36.005Z,12.20
2023-05-21T21:52:40.324Z,12.02
2023-05-21T21:57:43.413Z,11.94
2023-05-21T22:02:46.849Z,11.89
2023-05-21T22:07:51.654Z,11.76
2023-05-21T22:12:54.821Z,11.66
2023-05-21T22:17:58.916Z,11.60
2023-05-21T22:23:01.931Z,11.59
2023-05-21T22:28:05.550Z,11.49
2023-05-21T22:33:08.611Z,11.36
2023-05-21T22:38:11.604Z,11.30
2023-05-21T22:43:14.680Z,11.21
2023-05-21T22:48:18.502Z,11.07
2023-05-21T22:53:21.448Z,10.98
2023-05-21T22:58:24.618Z,10.93
2023-05-21T23:09:25.839Z,10.69
2023-05-21T23:14:28.930Z,10.57
2023-05-21T23:19:33.067Z,10.48
2023-05-21T23:24:36.583Z,10.35
2023-05-21T23:29:39.734Z,10.22
2023-05-21T23:34:43.105Z,10.07
2023-05-21T23:39:49.853Z,9.94
2023-05-21T23:44:53.110Z,9.84
2023-05-21T23:49:56.224Z,9.73
2023-05-21T23:54:59.360Z,9.61
